Terminal Aerodrome Forecast
Issued by NWS Sterling, VA

Current Version | Previous Version | Text Only | Print | Product List | Glossary Off
Versions: 1 2 3 4 5 6 7 8 9 10 11 12 13 14 15 16 17

832
FTUS41 KLWX 231122
TAFMRB
TAF
KMRB 231122Z 2312/2412 34004KT 4SM BR SCT050 BKN150
     FM231400 35005KT P6SM BKN080 BKN120
     FM231800 36006KT P6SM -SHRA BKN050 BKN150
     FM240000 31004KT P6SM SCT130 BKN200
     FM240500 29004KT 5SM BR SCT070 SCT200=

USA.gov is the U.S. government's official web portal to all federal, state and local government web resources and services.